createdAt,value
2018-08-10T00:01:29.596Z,5.40
2018-08-10T00:03:58.220Z,5.30
2018-08-10T00:06:27.114Z,4.90
2018-08-10T00:08:55.680Z,5.50
2018-08-10T00:11:24.904Z,4.87
2018-08-10T00:13:53.450Z,4.63
2018-08-10T00:16:22.072Z,5.07
2018-08-10T00:18:50.698Z,4.03
2018-08-10T00:21:19.212Z,4.50
2018-08-10T00:23:47.841Z,3.23
2018-08-10T00:26:16.384Z,3.60
2018-08-10T00:28:44.981Z,3.30
2018-08-10T00:31:13.930Z,3.27
2018-08-10T00:33:42.644Z,2.87
2018-08-10T00:36:11.230Z,3.10
2018-08-10T00:38:40.191Z,2.30
2018-08-10T00:41:08.845Z,2.40
2018-08-10T00:43:37.418Z,2.43
2018-08-10T00:46:06.247Z,2.17
2018-08-10T00:48:34.883Z,2.13
2018-08-10T00:51:03.822Z,1.70
2018-08-10T00:53:32.456Z,1.90
2018-08-10T00:56:00.951Z,2.13
2018-08-10T00:58:29.539Z,1.80
2018-08-10T01:00:58.161Z,1.60
2018-08-10T01:03:26.773Z,1.80
2018-08-10T01:05:55.288Z,1.50
2018-08-10T01:08:23.816Z,1.90
2018-08-10T01:10:52.303Z,1.93
2018-08-10T01:13:21.729Z,1.77
2018-08-10T01:15:50.562Z,1.70
2018-08-10T01:18:19.081Z,2.10
2018-08-10T01:20:47.745Z,2.50
2018-08-10T01:23:16.755Z,2.13
2018-08-10T01:25:45.249Z,2.37
2018-08-10T01:28:13.835Z,2.60
2018-08-10T01:30:42.411Z,2.40
2018-08-10T01:33:10.920Z,2.03
2018-08-10T01:35:39.781Z,2.27
2018-08-10T01:38:08.400Z,2.50
2018-08-10T01:40:36.962Z,2.60
2018-08-10T01:43:05.532Z,2.60
2018-08-10T01:45:34.083Z,2.60
2018-08-10T01:48:02.863Z,2.60
2018-08-10T01:50:31.397Z,2.87
2018-08-10T01:52:59.976Z,2.80
2018-08-10T01:55:28.522Z,3.77
2018-08-10T01:57:57.145Z,3.23
2018-08-10T02:00:25.641Z,3.40
2018-08-10T02:02:54.363Z,4.00
2018-08-10T02:05:23.064Z,3.13
2018-08-10T02:07:51.602Z,3.13
2018-08-10T02:10:20.488Z,2.97
2018-08-10T02:12:53.884Z,3.23
2018-08-10T02:15:22.590Z,3.37
2018-08-10T02:17:51.116Z,3.20
2018-08-10T02:20:22.006Z,3.20
2018-08-10T02:22:50.535Z,3.17
2018-08-10T02:25:20.700Z,2.90
2018-08-10T02:27:50.218Z,3.07
2018-08-10T02:30:20.116Z,2.50
2018-08-10T02:32:49.713Z,3.00
2018-08-10T02:35:18.272Z,2.60
2018-08-10T02:37:46.982Z,2.63
2018-08-10T02:40:18.159Z,3.00
2018-08-10T02:42:47.944Z,2.73
2018-08-10T02:45:17.117Z,3.00
2018-08-10T02:47:46.366Z,2.70
2018-08-10T02:50:15.092Z,2.37
2018-08-10T02:52:43.647Z,2.37
2018-08-10T02:55:12.595Z,2.23
2018-08-10T02:57:41.505Z,1.90
2018-08-10T03:00:13.333Z,2.20
2018-08-10T03:02:42.364Z,1.97
2018-08-10T03:05:11.424Z,1.80
2018-08-10T03:07:40.421Z,2.07
2018-08-10T03:10:10.637Z,2.40
2018-08-10T03:12:39.421Z,2.13
2018-08-10T03:15:12.149Z,2.13
2018-08-10T03:17:40.709Z,2.20
2018-08-10T03:20:09.484Z,2.20
2018-08-10T03:22:38.070Z,2.23
2018-08-10T03:25:07.297Z,1.80
2018-08-10T03:27:35.886Z,1.83
2018-08-10T03:30:05.607Z,2.00
2018-08-10T03:32:34.084Z,2.00
2018-08-10T03:35:02.914Z,1.73
2018-08-10T03:37:31.444Z,1.40
2018-08-10T03:39:59.941Z,1.60
2018-08-10T03:42:28.888Z,1.70
2018-08-10T03:44:57.681Z,1.93
2018-08-10T03:47:26.389Z,1.70
2018-08-10T03:49:55.025Z,1.40
2018-08-10T03:52:23.634Z,1.67
2018-08-10T03:54:52.204Z,1.53
2018-08-10T03:57:21.046Z,1.67
2018-08-10T03:59:49.524Z,1.67
2018-08-10T04:02:18.142Z,1.50
2018-08-10T04:04:46.882Z,1.67
2018-08-10T04:07:15.501Z,2.13
2018-08-10T04:09:44.085Z,1.53
2018-08-10T04:12:12.629Z,1.97
2018-08-10T04:14:41.322Z,1.73
2018-08-10T04:17:16.676Z,2.00
2018-08-10T04:19:45.247Z,2.10
2018-08-10T04:22:14.140Z,1.60
2018-08-10T04:24:42.970Z,1.83
2018-08-10T04:27:11.545Z,1.97
2018-08-10T04:29:40.228Z,1.50
2018-08-10T04:32:09.286Z,1.70
2018-08-10T04:34:37.878Z,1.90
2018-08-10T04:37:06.786Z,1.70
2018-08-10T04:39:35.355Z,1.90
2018-08-10T04:42:03.860Z,2.63
2018-08-10T04:44:32.864Z,2.20
2018-08-10T04:47:01.458Z,1.57
2018-08-10T04:49:30.017Z,1.90
2018-08-10T04:51:58.949Z,1.90
2018-08-10T04:54:27.841Z,1.90
2018-08-10T04:56:56.446Z,1.87
2018-08-10T04:59:25.014Z,2.10
2018-08-10T05:01:53.704Z,1.83
2018-08-10T05:04:22.952Z,2.07
2018-08-10T05:06:51.625Z,1.80
2018-08-10T05:09:20.141Z,2.10
2018-08-10T05:11:48.868Z,2.17
2018-08-10T05:14:17.346Z,1.97
2018-08-10T05:16:45.909Z,1.80
2018-08-10T05:19:14.416Z,2.37
2018-08-10T05:21:42.936Z,2.40
2018-08-10T05:24:11.484Z,2.23
2018-08-10T05:26:40.033Z,2.50
2018-08-10T05:29:08.586Z,2.90
2018-08-10T05:31:37.155Z,2.90
2018-08-10T05:34:05.693Z,3.17
2018-08-10T05:36:34.253Z,2.80
2018-08-10T05:39:02.905Z,3.20
2018-08-10T05:41:31.834Z,3.40
2018-08-10T05:44:00.403Z,3.40
2018-08-10T05:46:29.306Z,3.60
2018-08-10T05:48:57.845Z,3.27
2018-08-10T05:51:26.481Z,3.53
2018-08-10T05:53:55.010Z,4.13
2018-08-10T05:56:23.535Z,3.70
2018-08-10T05:58:52.068Z,3.93
2018-08-10T06:01:20.588Z,4.03
2018-08-10T06:03:49.130Z,4.50
2018-08-10T06:06:17.681Z,3.93
2018-08-10T06:08:46.239Z,4.37
2018-08-10T06:11:14.853Z,4.80
2018-08-10T06:13:43.378Z,4.40
2018-08-10T06:16:11.992Z,4.83
2018-08-10T06:18:40.620Z,4.80
2018-08-10T06:21:09.171Z,4.70
2018-08-10T06:23:37.777Z,5.03
2018-08-10T06:26:06.347Z,5.37
2018-08-10T06:28:34.929Z,5.57
2018-08-10T06:31:04.225Z,5.27
2018-08-10T06:33:32.762Z,5.93
2018-08-10T06:36:01.445Z,5.60
2018-08-10T06:38:29.950Z,5.80
2018-08-10T06:40:58.474Z,5.87
2018-08-10T06:43:27.053Z,5.70
2018-08-10T06:45:55.537Z,6.07
2018-08-10T06:48:24.095Z,6.37
2018-08-10T06:50:52.730Z,5.20
2018-08-10T06:53:21.281Z,6.20
2018-08-10T06:55:50.079Z,6.10
2018-08-10T06:58:18.535Z,5.80
2018-08-10T07:00:47.211Z,5.23
2018-08-10T07:03:15.675Z,5.90
2018-08-10T07:05:44.181Z,5.90
2018-08-10T07:08:12.793Z,6.63
2018-08-10T07:10:45.586Z,7.77
2018-08-10T07:13:14.152Z,6.37
2018-08-10T07:15:42.732Z,5.23
2018-08-10T07:18:11.227Z,5.43
2018-08-10T07:20:39.812Z,6.07
2018-08-10T07:23:08.398Z,4.67
2018-08-10T07:25:37.169Z,5.20
2018-08-10T07:28:05.733Z,4.93
2018-08-10T07:30:34.326Z,3.87
2018-08-10T07:33:03.025Z,4.23
2018-08-10T07:35:31.608Z,4.10
2018-08-10T07:38:00.218Z,4.00
2018-08-10T07:40:28.705Z,4.30
2018-08-10T07:42:57.233Z,3.70
2018-08-10T07:45:25.725Z,3.47
2018-08-10T07:47:54.609Z,3.30
2018-08-10T07:50:23.093Z,3.20
2018-08-10T07:52:51.601Z,3.13
2018-08-10T07:55:20.115Z,2.73
2018-08-10T07:57:48.616Z,2.90
2018-08-10T08:00:17.207Z,2.70
2018-08-10T08:02:45.713Z,2.93
2018-08-10T08:05:14.267Z,2.97
2018-08-10T08:07:42.808Z,3.20
2018-08-10T08:10:11.387Z,4.40
2018-08-10T08:12:39.894Z,2.97
2018-08-10T08:15:08.679Z,3.13
2018-08-10T08:17:37.612Z,3.73
2018-08-10T08:20:06.804Z,3.20
2018-08-10T08:22:35.385Z,3.47
2018-08-10T08:25:03.923Z,3.33
2018-08-10T08:27:32.517Z,3.37
2018-08-10T08:30:01.008Z,3.47
2018-08-10T08:32:29.620Z,3.27
2018-08-10T08:34:58.248Z,3.40
2018-08-10T08:37:26.729Z,5.47
2018-08-10T08:40:06.621Z,3.90
2018-08-10T08:42:35.138Z,3.80
2018-08-10T08:46:10.992Z,3.87
2018-08-10T08:48:41.605Z,5.00
2018-08-10T08:51:18.947Z,3.57
2018-08-10T08:53:47.601Z,4.00
2018-08-10T08:56:19.434Z,3.50
2018-08-10T08:58:49.336Z,3.60
2018-08-10T09:01:18.109Z,3.90
2018-08-10T09:04:57.749Z,3.60
2018-08-10T09:07:27.264Z,3.90
2018-08-10T09:09:56.058Z,3.77
2018-08-10T09:12:24.652Z,7.77
2018-08-10T09:15:07.158Z,3.57
2018-08-10T09:17:35.772Z,3.80
2018-08-10T09:20:05.178Z,3.77
2018-08-10T09:22:33.748Z,3.43
2018-08-10T09:25:02.393Z,3.10
2018-08-10T09:27:30.946Z,3.07
2018-08-10T09:29:59.476Z,3.37
2018-08-10T09:32:28.003Z,2.80
2018-08-10T09:34:56.512Z,3.00
2018-08-10T09:37:25.097Z,2.80
2018-08-10T09:39:53.584Z,3.03
2018-08-10T09:42:22.257Z,3.13
2018-08-10T09:44:50.788Z,2.50
2018-08-10T09:47:19.304Z,2.93
2018-08-10T09:49:49.056Z,3.00
2018-08-10T09:52:17.597Z,2.40
2018-08-10T09:55:36.942Z,2.40
2018-08-10T09:58:09.477Z,2.40
2018-08-10T10:00:43.506Z,2.57
2018-08-10T10:03:17.719Z,2.93
2018-08-10T10:05:47.411Z,3.40
2018-08-10T10:08:16.249Z,2.93
2018-08-10T10:10:44.794Z,2.90
2018-08-10T10:13:13.447Z,3.17
2018-08-10T10:15:42.387Z,2.63
2018-08-10T10:18:12.151Z,2.53
2018-08-10T10:20:41.102Z,2.70
2018-08-10T10:23:09.721Z,2.20
2018-08-10T10:25:38.241Z,2.30
2018-08-10T10:28:06.981Z,2.67
2018-08-10T10:30:35.620Z,2.37
2018-08-10T10:33:04.333Z,2.40
2018-08-10T10:35:32.861Z,2.27
2018-08-10T10:38:01.469Z,2.37
2018-08-10T10:40:29.990Z,2.43
2018-08-10T10:42:58.538Z,2.10
2018-08-10T10:45:27.037Z,2.37
2018-08-10T10:47:55.603Z,2.57
2018-08-10T10:50:53.913Z,2.67
2018-08-10T10:53:22.536Z,2.23
2018-08-10T10:55:51.062Z,2.30
2018-08-10T10:58:21.559Z,2.80
2018-08-10T11:00:50.241Z,2.30
2018-08-10T11:03:18.806Z,2.27
2018-08-10T11:05:47.437Z,2.13
2018-08-10T11:08:16.022Z,2.27
2018-08-10T11:10:44.558Z,2.13
2018-08-10T11:13:13.112Z,2.27
2018-08-10T11:15:41.639Z,2.10
2018-08-10T11:18:10.240Z,1.97
2018-08-10T11:20:38.748Z,2.20
2018-08-10T11:23:07.640Z,2.53
2018-08-10T11:25:36.382Z,2.40
2018-08-10T11:28:04.884Z,1.90
2018-08-10T11:30:33.592Z,2.10
2018-08-10T11:33:02.118Z,1.80
2018-08-10T11:35:30.702Z,2.00
2018-08-10T11:37:59.222Z,1.80
2018-08-10T11:40:27.771Z,2.10
2018-08-10T11:42:56.307Z,2.17
2018-08-10T11:45:24.928Z,1.90
2018-08-10T11:47:53.717Z,2.13
2018-08-10T11:50:22.327Z,1.90
2018-08-10T11:52:50.915Z,2.20
2018-08-10T11:55:19.429Z,1.83
2018-08-10T11:57:47.963Z,1.83
2018-08-10T12:00:16.826Z,1.87
2018-08-10T12:02:45.401Z,1.90
2018-08-10T12:05:14.540Z,1.90
2018-08-10T12:07:43.204Z,1.90
2018-08-10T12:10:11.777Z,1.93
2018-08-10T12:12:40.357Z,1.90
2018-08-10T12:15:11.065Z,1.83
2018-08-10T12:17:39.832Z,1.93
2018-08-10T12:20:08.795Z,2.10
2018-08-10T12:22:37.499Z,2.07
2018-08-10T12:25:06.260Z,2.03
2018-08-10T12:27:34.954Z,1.70
2018-08-10T12:30:04.602Z,1.83
2018-08-10T12:32:33.223Z,1.77
2018-08-10T12:35:01.748Z,2.33
2018-08-10T12:37:30.244Z,2.00
2018-08-10T12:39:58.774Z,1.70
2018-08-10T12:42:27.344Z,1.90
2018-08-10T12:44:55.836Z,1.80
2018-08-10T12:47:24.449Z,2.30
2018-08-10T12:49:53.032Z,1.70
2018-08-10T12:52:21.596Z,1.93
2018-08-10T12:54:50.136Z,2.17
2018-08-10T12:57:18.648Z,1.70
2018-08-10T12:59:47.324Z,1.60
2018-08-10T13:02:15.868Z,1.90
2018-08-10T13:04:44.558Z,1.90
2018-08-10T13:07:13.311Z,1.70
2018-08-10T13:09:41.851Z,1.80
2018-08-10T13:12:10.467Z,1.60
2018-08-10T13:14:39.007Z,1.63
2018-08-10T13:17:07.626Z,2.10
2018-08-10T13:19:36.125Z,1.87
2018-08-10T13:22:04.765Z,1.70
2018-08-10T13:24:33.319Z,1.83
2018-08-10T13:27:01.913Z,1.70
2018-08-10T13:29:30.534Z,1.70
2018-08-10T13:31:59.200Z,2.10
2018-08-10T13:34:27.799Z,1.70
2018-08-10T13:36:56.295Z,1.80
2018-08-10T13:39:24.831Z,1.87
2018-08-10T13:41:53.320Z,1.63
2018-08-10T13:44:21.964Z,1.87
2018-08-10T13:46:50.542Z,1.67
2018-08-10T13:49:19.120Z,1.60
2018-08-10T13:51:47.666Z,1.70
2018-08-10T13:54:16.221Z,2.00
2018-08-10T13:56:44.828Z,1.80
2018-08-10T13:59:13.346Z,1.70
2018-08-10T14:01:41.852Z,1.70
2018-08-10T14:04:10.715Z,1.93
2018-08-10T14:06:39.272Z,1.40
2018-08-10T14:09:09.688Z,1.60
2018-08-10T14:11:38.281Z,1.53
2018-08-10T14:14:06.792Z,1.87
2018-08-10T14:16:35.397Z,1.50
2018-08-10T14:19:04.053Z,1.60
2018-08-10T14:21:32.788Z,1.60
2018-08-10T14:24:01.534Z,1.50
2018-08-10T14:26:30.130Z,1.43
2018-08-10T14:28:58.648Z,1.67
2018-08-10T14:31:27.201Z,1.37
2018-08-10T14:33:55.756Z,1.80
2018-08-10T14:36:24.264Z,1.67
2018-08-10T14:38:52.999Z,1.70
2018-08-10T14:41:21.727Z,1.50
2018-08-10T14:43:50.334Z,1.70
2018-08-10T14:46:19.020Z,1.70
2018-08-10T14:48:47.728Z,1.90
2018-08-10T14:51:16.264Z,1.70
2018-08-10T14:53:45.206Z,1.80
2018-08-10T14:56:13.734Z,2.00
2018-08-10T14:58:45.454Z,3.53
2018-08-10T15:01:14.051Z,1.50
2018-08-10T15:03:42.930Z,1.83
2018-08-10T15:06:11.481Z,1.87
2018-08-10T15:08:40.058Z,1.70
2018-08-10T15:11:08.721Z,1.87
2018-08-10T15:13:37.253Z,1.80
2018-08-10T15:16:05.951Z,2.27
2018-08-10T15:18:34.980Z,2.37
2018-08-10T15:21:05.712Z,2.20
2018-08-10T15:23:34.377Z,2.10
2018-08-10T15:26:02.928Z,1.87
2018-08-10T15:28:31.516Z,2.17
2018-08-10T15:31:00.095Z,1.90
2018-08-10T15:33:28.687Z,1.90
2018-08-10T15:35:57.264Z,2.07
2018-08-10T15:38:25.836Z,2.00
2018-08-10T15:40:54.352Z,1.80
2018-08-10T15:43:23.035Z,1.80
2018-08-10T15:45:51.918Z,1.77
2018-08-10T15:48:20.405Z,1.77
2018-08-10T15:50:48.966Z,1.87
2018-08-10T15:53:17.599Z,1.73
2018-08-10T15:55:46.232Z,1.80
2018-08-10T15:58:14.903Z,1.87
2018-08-10T16:00:43.476Z,1.90
2018-08-10T16:03:12.106Z,1.67
2018-08-10T16:05:40.706Z,1.90
2018-08-10T16:08:09.284Z,1.80
2018-08-10T16:10:38.423Z,1.67
2018-08-10T16:13:07.085Z,1.70
2018-08-10T16:15:35.660Z,2.00
2018-08-10T16:18:04.312Z,2.03
2018-08-10T16:20:32.939Z,1.90
2018-08-10T16:23:01.494Z,1.90
2018-08-10T16:25:30.100Z,2.00
2018-08-10T16:27:58.740Z,1.77
2018-08-10T16:30:27.277Z,1.70
2018-08-10T16:32:55.852Z,1.93
2018-08-10T16:35:24.376Z,1.90
2018-08-10T16:37:53.056Z,1.80
2018-08-10T16:40:21.684Z,1.80
2018-08-10T16:42:50.278Z,2.07
2018-08-10T16:45:18.892Z,1.70
2018-08-10T16:47:47.459Z,1.70
2018-08-10T16:50:17.652Z,2.10
2018-08-10T16:52:46.445Z,2.00
2018-08-10T16:55:17.389Z,2.20
2018-08-10T16:57:46.600Z,1.87
2018-08-10T17:00:20.832Z,1.90
2018-08-10T17:02:49.597Z,1.47
2018-08-10T17:05:18.238Z,1.70
2018-08-10T17:07:46.812Z,1.43
2018-08-10T17:10:15.407Z,1.50
2018-08-10T17:12:45.083Z,1.80
2018-08-10T17:15:15.184Z,1.70
2018-08-10T17:17:44.508Z,1.40
2018-08-10T17:20:13.485Z,1.77
2018-08-10T17:22:42.676Z,1.60
2018-08-10T17:25:12.454Z,1.70
2018-08-10T17:27:41.136Z,1.60
2018-08-10T17:30:11.887Z,1.57
2018-08-10T17:32:40.635Z,1.33
2018-08-10T17:35:10.912Z,1.30
2018-08-10T17:37:39.721Z,1.67
2018-08-10T17:40:09.071Z,1.50
2018-08-10T17:42:38.358Z,1.90
2018-08-10T17:45:09.424Z,1.70
2018-08-10T17:47:38.205Z,1.70
2018-08-10T17:50:11.812Z,1.60
2018-08-10T17:52:42.601Z,1.47
2018-08-10T17:55:11.603Z,1.73
2018-08-10T17:57:40.175Z,1.77
2018-08-10T18:00:11.152Z,1.70
2018-08-10T18:02:39.727Z,1.70
2018-08-10T18:05:10.426Z,1.40
2018-08-10T18:07:39.092Z,2.30
2018-08-10T18:10:08.185Z,1.80
2018-08-10T18:12:37.281Z,1.67
2018-08-10T18:15:07.500Z,1.70
2018-08-10T18:17:36.653Z,1.80
2018-08-10T18:20:07.631Z,1.70
2018-08-10T18:22:36.258Z,1.60
2018-08-10T18:25:05.286Z,1.30
2018-08-10T18:27:33.887Z,1.77
2018-08-10T18:30:02.510Z,1.60
2018-08-10T18:32:31.201Z,1.57
2018-08-10T18:34:59.762Z,1.70
2018-08-10T18:37:28.344Z,1.70
2018-08-10T18:39:56.951Z,1.40
2018-08-10T18:42:25.510Z,1.50
2018-08-10T18:44:54.025Z,1.67
2018-08-10T18:47:22.737Z,1.73
2018-08-10T18:49:51.265Z,1.80
2018-08-10T18:52:19.907Z,1.40
2018-08-10T18:54:48.503Z,1.70
2018-08-10T18:57:17.092Z,1.80
2018-08-10T18:59:45.938Z,1.70
2018-08-10T19:02:14.537Z,1.70
2018-08-10T19:04:43.082Z,2.30
2018-08-10T19:07:12.172Z,1.97
2018-08-10T19:09:40.798Z,1.90
2018-08-10T19:12:09.484Z,2.03
2018-08-10T19:14:38.135Z,1.50
2018-08-10T19:17:06.719Z,1.70
2018-08-10T19:19:35.288Z,1.60
2018-08-10T19:22:04.013Z,1.70
2018-08-10T19:24:32.898Z,1.80
2018-08-10T19:27:01.516Z,1.87
2018-08-10T19:29:30.171Z,2.00
2018-08-10T19:31:58.841Z,2.20
2018-08-10T19:34:27.367Z,1.97
2018-08-10T19:36:56.162Z,1.97
2018-08-10T19:39:24.706Z,1.70
2018-08-10T19:41:53.275Z,1.67
2018-08-10T19:44:21.825Z,2.07
2018-08-10T19:46:50.458Z,1.60
2018-08-10T19:49:18.988Z,1.80
2018-08-10T19:51:47.552Z,1.60
2018-08-10T19:54:16.120Z,1.70
2018-08-10T19:56:44.679Z,1.70
2018-08-10T19:59:13.254Z,1.80
2018-08-10T20:01:41.880Z,1.80
2018-08-10T20:04:10.464Z,1.57
2018-08-10T20:06:39.145Z,1.80
2018-08-10T20:09:10.956Z,1.70
2018-08-10T20:11:39.492Z,1.60
2018-08-10T20:14:08.530Z,1.63
2018-08-10T20:16:37.218Z,1.80
2018-08-10T20:19:05.843Z,1.70
2018-08-10T20:21:34.463Z,1.60
2018-08-10T20:24:03.315Z,1.60
2018-08-10T20:26:31.898Z,1.60
2018-08-10T20:29:00.617Z,1.60
2018-08-10T20:31:29.589Z,1.50
2018-08-10T20:33:58.159Z,1.70
2018-08-10T20:36:26.872Z,1.40
2018-08-10T20:38:55.474Z,1.70
2018-08-10T20:41:25.500Z,1.30
2018-08-10T20:43:54.120Z,1.50
2018-08-10T20:46:22.718Z,1.40
2018-08-10T20:48:51.269Z,1.87
2018-08-10T20:51:19.904Z,1.80
2018-08-10T20:53:48.446Z,1.90
2018-08-10T20:56:17.248Z,1.70
2018-08-10T20:58:45.869Z,2.30
2018-08-10T21:01:14.453Z,2.20
2018-08-10T21:03:43.383Z,2.20
2018-08-10T21:06:11.925Z,1.67
2018-08-10T21:08:40.650Z,1.90
2018-08-10T21:11:09.221Z,2.40
2018-08-10T21:13:37.711Z,1.90
2018-08-10T21:16:06.515Z,1.97
2018-08-10T21:18:35.090Z,1.80
2018-08-10T21:21:03.618Z,1.60
2018-08-10T21:23:32.289Z,1.57
2018-08-10T21:26:00.810Z,1.63
2018-08-10T21:28:29.340Z,1.60
2018-08-10T21:30:57.864Z,1.77
2018-08-10T21:33:26.431Z,1.70
2018-08-10T21:35:54.956Z,1.60
2018-08-10T21:38:23.518Z,1.50
2018-08-10T21:40:52.057Z,1.50
2018-08-10T21:43:20.602Z,1.57
2018-08-10T21:45:49.182Z,1.70
2018-08-10T21:48:17.756Z,1.77
2018-08-10T21:50:46.295Z,2.10
2018-08-10T21:53:14.827Z,1.83
2018-08-10T21:55:43.351Z,1.73
2018-08-10T21:58:11.880Z,1.80
2018-08-10T22:00:52.792Z,1.40
2018-08-10T22:03:23.271Z,1.70
2018-08-10T22:05:51.823Z,1.40
2018-08-10T22:08:21.578Z,2.00
2018-08-10T22:10:50.512Z,1.73
2018-08-10T22:13:24.483Z,1.73
2018-08-10T22:15:58.169Z,1.70
2018-08-10T22:18:32.044Z,1.97
2018-08-10T22:21:00.603Z,1.70
2018-08-10T22:23:29.893Z,1.67
2018-08-10T22:25:59.319Z,1.50
2018-08-10T22:28:28.181Z,1.70
2018-08-10T22:30:56.723Z,1.90
2018-08-10T22:33:25.327Z,1.53
2018-08-10T22:35:53.893Z,1.67
2018-08-10T22:38:22.478Z,1.57
2018-08-10T22:40:51.117Z,1.67
2018-08-10T22:43:19.743Z,1.57
2018-08-10T22:45:48.283Z,1.90
2018-08-10T22:48:16.805Z,1.90
2018-08-10T22:50:45.339Z,2.00
2018-08-10T22:53:14.121Z,2.10
2018-08-10T22:55:42.841Z,2.23
2018-08-10T22:58:11.316Z,2.10
2018-08-10T23:00:40.979Z,2.03
2018-08-10T23:03:09.516Z,2.33
2018-08-10T23:05:38.045Z,2.40
2018-08-10T23:08:06.654Z,2.30
2018-08-10T23:10:35.253Z,2.27
2018-08-10T23:13:03.863Z,2.70
2018-08-10T23:15:32.386Z,2.97
2018-08-10T23:18:00.934Z,3.60
2018-08-10T23:20:29.506Z,5.00
2018-08-10T23:22:58.014Z,5.67
2018-08-10T23:25:26.526Z,4.90
2018-08-10T23:27:55.133Z,5.17
2018-08-10T23:30:23.705Z,4.40
2018-08-10T23:32:52.237Z,2.40
2018-08-10T23:35:21.162Z,1.93
2018-08-10T23:37:49.680Z,1.70
2018-08-10T23:40:18.231Z,1.60
2018-08-10T23:42:46.734Z,1.40
2018-08-10T23:45:15.906Z,1.50
2018-08-10T23:47:45.565Z,1.53
2018-08-10T23:50:15.389Z,1.30
2018-08-10T23:52:44.550Z,1.53
2018-08-10T23:55:14.888Z,1.60
2018-08-10T23:57:43.456Z,1.90
